Terminal Aerodrome Forecast
Issued by NWS Sterling, VA

Home | Current Version | Previous Version | Text Only | Print | Product List | Glossary On
Versions: 1 2 3 4 5 6 7 8 9 10 11 12 13 14 15 16 17 18 19 20 21
000
FTUS41 KLWX 052116 AAA
TAFCHO
TAF AMD
KCHO 052116Z 0521/0618 10005KT P6SM VCSH BKN025 BKN050
     FM060100 VRB03KT 5SM -SHRA SCT015 BKN040
      TEMPO 0605/0609 2SM SHRA BKN015
     FM061300 15004KT 4SM BR VCSH SCT007 BKN015=

USA.gov is the U.S. government's official web portal to all federal, state and local government web resources and services.